Time;durP1;ratioP1;P1;durP2;ratioP2;P2;SDS_P1;SDS_P2;PMS_P1;PMS_P2;Temp;Humidity;BMP_temperature;BMP_pressure;BME280_temperature;BME280_humidity;BME280_pressure;Samples;Min_cycle;Max_cycle;Signal;HPM_P1;HPM_P2
2021/04/25 00:02:26;;;;;;;26.48;18.38;;;;;;;;;;6061306;29;20136;-73
2021/04/25 00:05:27;;;;;;;27.13;17.40;;;;;;;;;;6065818;29;20139;-74
2021/04/25 00:08:28;;;;;;;30.58;18.08;;;;;;;;;;6069712;29;20147;-75
2021/04/25 00:11:29;;;;;;;26.60;16.90;;;;;;;;;;6074209;29;20755;-74
2021/04/25 00:14:31;;;;;;;25.92;17.13;;;;;;;;;;6072604;29;20193;-75
2021/04/25 00:17:32;;;;;;;28.40;17.90;;;;;;;;;;6076145;29;20136;-74
2021/04/25 00:20:33;;;;;;;27.38;17.13;;;;;;;;;;6067442;29;20072;-73
2021/04/25 00:23:34;;;;;;;25.35;17.40;;;;;;;;;;6063723;29;20116;-76
2021/04/25 00:26:35;;;;;;;24.58;17.05;;;;;;;;;;6062165;29;20103;-72
2021/04/25 00:29:37;;;;;;;26.17;17.55;;;;;;;;;;6068606;29;20478;-72
2021/04/25 00:32:38;;;;;;;26.02;17.27;;;;;;;;;;6063911;29;20127;-73
2021/04/25 00:35:39;;;;;;;26.10;17.35;;;;;;;;;;6061731;29;20602;-73
2021/04/25 00:38:41;;;;;;;29.73;18.90;;;;;;;;;;6062790;29;20044;-73
2021/04/25 00:41:42;;;;;;;24.58;16.83;;;;;;;;;;6058104;29;20128;-74
2021/04/25 00:44:45;;;;;;;28.20;18.08;;;;;;;;;;6066480;29;20072;-73
2021/04/25 00:47:48;;;;;;;27.30;16.88;;;;;;;;;;6073658;29;20153;-75
2021/04/25 00:50:49;;;;;;;26.73;17.65;;;;;;;;;;6068686;29;20148;-74
2021/04/25 00:53:50;;;;;;;24.88;17.63;;;;;;;;;;6066265;29;20532;-72
2021/04/25 00:56:53;;;;;;;26.35;17.70;;;;;;;;;;6068082;29;20139;-76
2021/04/25 00:59:55;;;;;;;25.15;16.30;;;;;;;;;;6072244;29;20045;-74
2021/04/25 01:02:56;;;;;;;25.65;16.30;;;;;;;;;;6071380;29;20692;-78
2021/04/25 01:05:57;;;;;;;24.65;16.25;;;;;;;;;;6074139;29;20408;-74
2021/04/25 01:08:58;;;;;;;27.00;16.27;;;;;;;;;;6071502;29;20526;-73
2021/04/25 01:11:59;;;;;;;25.15;17.00;;;;;;;;;;6058545;29;20716;-74
2021/04/25 01:15:01;;;;;;;29.92;16.50;;;;;;;;;;6068060;29;20072;-74
2021/04/25 01:18:03;;;;;;;24.83;16.42;;;;;;;;;;6068425;29;20072;-75
2021/04/25 01:21:05;;;;;;;28.10;17.20;;;;;;;;;;6070464;29;20139;-74
2021/04/25 01:24:07;;;;;;;24.10;16.00;;;;;;;;;;6066563;29;20519;-75
2021/04/25 01:27:08;;;;;;;24.48;15.98;;;;;;;;;;6069072;29;20142;-73
2021/04/25 01:30:12;;;;;;;24.67;16.75;;;;;;;;;;6071985;29;20150;-75
2021/04/25 01:33:13;;;;;;;27.15;17.02;;;;;;;;;;6067855;29;20128;-75
2021/04/25 01:36:15;;;;;;;26.48;17.10;;;;;;;;;;6069701;29;20681;-75
2021/04/25 01:39:17;;;;;;;25.08;16.30;;;;;;;;;;6068046;29;20052;-74
2021/04/25 01:42:18;;;;;;;26.92;16.10;;;;;;;;;;6063623;29;20104;-72
2021/04/25 01:45:19;;;;;;;24.88;15.90;;;;;;;;;;6070887;29;20116;-73
2021/04/25 01:48:21;;;;;;;25.80;16.63;;;;;;;;;;6068811;29;20072;-72
2021/04/25 01:51:22;;;;;;;24.05;15.98;;;;;;;;;;6066065;29;20174;-75
2021/04/25 01:54:24;;;;;;;26.48;16.50;;;;;;;;;;6069850;29;21040;-75
2021/04/25 01:57:25;;;;;;;27.58;16.42;;;;;;;;;;6070069;29;20084;-76
2021/04/25 02:00:29;;;;;;;26.95;16.80;;;;;;;;;;6066999;29;20052;-74
2021/04/25 02:03:30;;;;;;;;;;;;;;;;;;6064315;29;20143;-72
2021/04/25 02:06:33;;;;;;;25.52;16.10;;;;;;;;;;6064888;29;20026;-73
2021/04/25 02:09:34;;;;;;;27.00;16.50;;;;;;;;;;6058680;29;20068;-73
2021/04/25 02:12:35;;;;;;;24.65;16.02;;;;;;;;;;6068222;29;20065;-73
2021/04/25 02:15:36;;;;;;;26.10;16.45;;;;;;;;;;6065181;29;20862;-75
2021/04/25 02:18:37;;;;;;;28.30;16.55;;;;;;;;;;6066318;29;20080;-73
2021/04/25 02:21:39;;;;;;;23.65;15.30;;;;;;;;;;6069702;29;20123;-73
2021/04/25 02:24:40;;;;;;;24.70;15.40;;;;;;;;;;6069197;29;20080;-74
2021/04/25 02:27:42;;;;;;;21.60;15.07;;;;;;;;;;6062282;29;20138;-76
2021/04/25 02:30:44;;;;;;;25.13;16.05;;;;;;;;;;6069040;29;20083;-75
2021/04/25 02:33:46;;;;;;;25.42;15.73;;;;;;;;;;6071049;29;20071;-75
2021/04/25 02:36:48;;;;;;;21.02;15.50;;;;;;;;;;6067576;29;20065;-74
2021/04/25 02:39:49;;;;;;;24.83;15.95;;;;;;;;;;6061606;29;20762;-73
2021/04/25 02:42:50;;;;;;;25.13;15.77;;;;;;;;;;6064056;29;20088;-72
2021/04/25 02:45:51;;;;;;;22.88;15.57;;;;;;;;;;6070452;29;20135;-74
2021/04/25 02:48:52;;;;;;;24.98;15.38;;;;;;;;;;6068992;29;20064;-76
2021/04/25 02:51:54;;;;;;;25.98;16.08;;;;;;;;;;6066633;29;20136;-76
2021/04/25 02:54:56;;;;;;;22.80;16.27;;;;;;;;;;6067287;29;20640;-73
2021/04/25 02:57:57;;;;;;;23.38;15.40;;;;;;;;;;6064235;29;20094;-74
2021/04/25 03:00:58;;;;;;;24.90;15.68;;;;;;;;;;6069426;29;20140;-74
2021/04/25 03:03:59;;;;;;;22.88;14.38;;;;;;;;;;6067507;29;20070;-74
2021/04/25 03:07:01;;;;;;;24.00;14.93;;;;;;;;;;6067118;29;20491;-75
2021/04/25 03:10:03;;;;;;;22.17;14.70;;;;;;;;;;6066253;29;20060;-74
2021/04/25 03:13:04;;;;;;;20.13;14.35;;;;;;;;;;6070823;29;20488;-74
2021/04/25 03:16:05;;;;;;;21.15;14.65;;;;;;;;;;6066178;29;20112;-75
2021/04/25 03:19:06;;;;;;;24.52;14.93;;;;;;;;;;6073588;29;20167;-74
2021/04/25 03:22:08;;;;;;;19.73;14.27;;;;;;;;;;6070748;29;20135;-75
2021/04/25 03:25:11;;;;;;;25.20;15.02;;;;;;;;;;6070171;29;20104;-75
2021/04/25 03:28:12;;;;;;;21.35;15.43;;;;;;;;;;6070075;29;20052;-75
2021/04/25 03:31:13;;;;;;;21.85;14.52;;;;;;;;;;6073638;29;20079;-74
2021/04/25 03:34:14;;;;;;;23.55;15.07;;;;;;;;;;6073224;29;20063;-74
2021/04/25 03:37:16;;;;;;;21.65;14.35;;;;;;;;;;6077467;29;20208;-74
2021/04/25 03:40:19;;;;;;;22.50;14.93;;;;;;;;;;6070413;29;20135;-75
2021/04/25 03:43:20;;;;;;;21.85;14.73;;;;;;;;;;6075882;29;20095;-76
2021/04/25 03:46:21;;;;;;;22.30;14.80;;;;;;;;;;6063244;29;20069;-75
2021/04/25 03:49:23;;;;;;;23.65;14.85;;;;;;;;;;6072368;29;20144;-75
2021/04/25 03:52:25;;;;;;;22.23;14.50;;;;;;;;;;6075449;29;20084;-74
2021/04/25 03:55:26;;;;;;;19.20;13.98;;;;;;;;;;6071516;29;20082;-75
2021/04/25 03:58:27;;;;;;;21.45;14.52;;;;;;;;;;6064026;29;20508;-75
2021/04/25 04:01:28;;;;;;;21.58;13.38;;;;;;;;;;6065141;29;20603;-74
2021/04/25 04:04:29;;;;;;;25.15;14.45;;;;;;;;;;6056562;29;20412;-75
2021/04/25 04:07:31;;;;;;;23.38;14.73;;;;;;;;;;6061695;29;20076;-74
2021/04/25 04:10:32;;;;;;;18.77;14.00;;;;;;;;;;6063144;29;20185;-75
2021/04/25 04:13:33;;;;;;;20.52;13.98;;;;;;;;;;6076550;29;20083;-75
2021/04/25 04:16:35;;;;;;;20.55;14.07;;;;;;;;;;6067176;29;20069;-74
2021/04/25 04:19:36;;;;;;;24.90;14.55;;;;;;;;;;6067095;29;20080;-75
2021/04/25 04:22:38;;;;;;;27.42;15.27;;;;;;;;;;6060146;29;20532;-74
2021/04/25 04:25:39;;;;;;;21.58;13.80;;;;;;;;;;6065904;29;20096;-74
2021/04/25 04:28:40;;;;;;;23.20;13.82;;;;;;;;;;6055703;29;20968;-76
2021/04/25 04:31:41;;;;;;;25.63;15.07;;;;;;;;;;6060076;29;20140;-74
2021/04/25 04:34:42;;;;;;;21.58;15.02;;;;;;;;;;6072749;29;20089;-74
2021/04/25 04:37:44;;;;;;;25.52;14.32;;;;;;;;;;6072312;29;20056;-76
2021/04/25 04:40:45;;;;;;;20.15;13.68;;;;;;;;;;6069447;29;20770;-77
2021/04/25 04:43:46;;;;;;;22.38;14.82;;;;;;;;;;6067851;29;20136;-77
2021/04/25 04:46:47;;;;;;;22.30;14.18;;;;;;;;;;6058339;29;20139;-75
2021/04/25 04:49:48;;;;;;;21.80;13.25;;;;;;;;;;6070011;29;20499;-76
2021/04/25 04:52:50;;;;;;;21.38;14.35;;;;;;;;;;6073182;29;20131;-76
2021/04/25 04:55:51;;;;;;;23.77;14.20;;;;;;;;;;6070884;29;20060;-75
2021/04/25 04:58:52;;;;;;;21.60;14.10;;;;;;;;;;6068919;29;20072;-75
2021/04/25 05:01:54;;;;;;;20.27;14.25;;;;;;;;;;6063701;29;21110;-76
2021/04/25 05:04:55;;;;;;;18.92;13.77;;;;;;;;;;6062351;29;20202;-75
2021/04/25 05:07:57;;;;;;;20.38;14.40;;;;;;;;;;6065064;29;20535;-77
2021/04/25 05:10:58;;;;;;;25.13;14.65;;;;;;;;;;6065668;29;20494;-75
2021/04/25 05:13:59;;;;;;;28.48;15.15;;;;;;;;;;6064405;29;20218;-75
2021/04/25 05:17:00;;;;;;;23.67;14.63;;;;;;;;;;6076885;29;20076;-75
2021/04/25 05:20:01;;;;;;;21.88;14.55;;;;;;;;;;6069579;29;20068;-74
2021/04/25 05:23:03;;;;;;;21.45;14.70;;;;;;;;;;6060077;29;20508;-74
2021/04/25 05:26:04;;;;;;;20.55;14.77;;;;;;;;;;6066302;29;20164;-77
2021/04/25 05:29:06;;;;;;;21.17;14.77;;;;;;;;;;6067606;29;20098;-73
2021/04/25 05:32:07;;;;;;;22.88;14.73;;;;;;;;;;6074538;29;20065;-73
2021/04/25 05:35:08;;;;;;;23.50;15.25;;;;;;;;;;6076607;29;20127;-75
2021/04/25 05:38:11;;;;;;;24.00;14.80;;;;;;;;;;6074885;29;20492;-75
2021/04/25 05:41:13;;;;;;;22.67;13.60;;;;;;;;;;6084063;29;20052;-74
2021/04/25 05:44:14;;;;;;;20.48;14.55;;;;;;;;;;6069885;29;20446;-74
2021/04/25 05:47:15;;;;;;;23.33;13.95;;;;;;;;;;6072432;29;20735;-74
2021/04/25 05:50:17;;;;;;;23.95;15.60;;;;;;;;;;6063397;29;20139;-75
2021/04/25 05:53:19;;;;;;;21.05;14.07;;;;;;;;;;6059597;29;20136;-74
2021/04/25 05:56:21;;;;;;;22.48;15.05;;;;;;;;;;6061017;29;20045;-74
2021/04/25 05:59:22;;;;;;;23.52;15.02;;;;;;;;;;6064371;29;20143;-75
2021/04/25 06:02:23;;;;;;;21.90;14.98;;;;;;;;;;6063415;29;20527;-73
2021/04/25 06:05:24;;;;;;;24.25;15.27;;;;;;;;;;6060409;29;20139;-74
2021/04/25 06:08:26;;;;;;;20.92;15.43;;;;;;;;;;6062114;29;20127;-74
2021/04/25 06:11:27;;;;;;;22.52;15.82;;;;;;;;;;6058036;29;20084;-75
2021/04/25 06:14:28;;;;;;;21.77;14.70;;;;;;;;;;6058832;29;20083;-74
2021/04/25 06:17:29;;;;;;;24.15;15.20;;;;;;;;;;6062431;29;20129;-76
2021/04/25 06:20:31;;;;;;;21.23;14.77;;;;;;;;;;6063979;29;20040;-75
2021/04/25 06:23:33;;;;;;;25.95;15.65;;;;;;;;;;6055531;29;20076;-74
2021/04/25 06:26:34;;;;;;;24.50;15.13;;;;;;;;;;6067180;29;20053;-75
2021/04/25 06:29:35;;;;;;;20.92;14.55;;;;;;;;;;6070301;29;20502;-76
2021/04/25 06:32:37;;;;;;;20.45;13.45;;;;;;;;;;6071537;29;20080;-77
2021/04/25 06:35:38;;;;;;;23.50;14.45;;;;;;;;;;6072741;29;20089;-73
2021/04/25 06:38:40;;;;;;;20.60;14.70;;;;;;;;;;6059236;29;20803;-73
2021/04/25 06:41:41;;;;;;;24.70;14.68;;;;;;;;;;6062403;29;20156;-73
2021/04/25 06:44:42;;;;;;;24.48;14.68;;;;;;;;;;6065670;29;20075;-75
2021/04/25 06:47:43;;;;;;;22.95;14.57;;;;;;;;;;6071565;29;20132;-75
2021/04/25 06:50:44;;;;;;;24.13;14.20;;;;;;;;;;6069686;29;20080;-73
2021/04/25 06:53:46;;;;;;;21.60;13.80;;;;;;;;;;6073897;29;20064;-75
2021/04/25 06:56:47;;;;;;;22.70;14.68;;;;;;;;;;6069032;29;20057;-74
2021/04/25 06:59:48;;;;;;;19.08;13.10;;;;;;;;;;6057960;29;20132;-74
2021/04/25 07:02:50;;;;;;;20.42;12.43;;;;;;;;;;6054107;29;20469;-77
2021/04/25 07:05:51;;;;;;;22.40;13.32;;;;;;;;;;6070339;29;20078;-74
2021/04/25 07:08:53;;;;;;;21.77;13.50;;;;;;;;;;6071568;29;20131;-74
2021/04/25 07:11:54;;;;;;;20.75;13.23;;;;;;;;;;6074014;29;20076;-75
2021/04/25 07:14:56;;;;;;;18.98;13.07;;;;;;;;;;6059401;29;20056;-75
2021/04/25 07:17:58;;;;;;;19.10;12.95;;;;;;;;;;6053606;29;20080;-77
2021/04/25 07:21:00;;;;;;;26.10;12.70;;;;;;;;;;6071079;29;20476;-74
2021/04/25 07:24:02;;;;;;;21.77;12.55;;;;;;;;;;6070369;29;20136;-75
2021/04/25 07:27:04;;;;;;;18.63;11.82;;;;;;;;;;6068601;29;20589;-75
2021/04/25 07:30:08;;;;;;;17.13;12.00;;;;;;;;;;6077336;29;20040;-75
2021/04/25 07:33:09;;;;;;;19.00;11.57;;;;;;;;;;6070768;29;20147;-77
2021/04/25 07:36:10;;;;;;;18.20;12.00;;;;;;;;;;6077196;29;20076;-76
2021/04/25 07:39:12;;;;;;;17.40;11.57;;;;;;;;;;6077345;29;20084;-76
2021/04/25 07:42:14;;;;;;;20.35;11.93;;;;;;;;;;6075756;29;20115;-76
2021/04/25 07:45:16;;;;;;;16.27;11.68;;;;;;;;;;6066086;29;20144;-77
2021/04/25 07:48:17;;;;;;;18.13;10.30;;;;;;;;;;6064327;29;20053;-78
2021/04/25 07:51:18;;;;;;;16.55;10.90;;;;;;;;;;6077680;29;20077;-77
2021/04/25 07:54:20;;;;;;;21.83;11.38;;;;;;;;;;6071434;29;20149;-79
2021/04/25 07:57:21;;;;;;;18.85;11.05;;;;;;;;;;6073488;29;20049;-78
2021/04/25 08:00:23;;;;;;;16.00;11.20;;;;;;;;;;6076087;29;20131;-78
2021/04/25 08:03:24;;;;;;;16.65;10.32;;;;;;;;;;6075422;29;20391;-77
2021/04/25 08:06:26;;;;;;;15.73;10.68;;;;;;;;;;6073763;29;20051;-78
2021/04/25 08:09:28;;;;;;;16.30;11.30;;;;;;;;;;6074880;29;20041;-78
2021/04/25 08:12:29;;;;;;;15.43;11.15;;;;;;;;;;6072395;29;20116;-78
2021/04/25 08:15:30;;;;;;;16.92;11.32;;;;;;;;;;6071090;29;20531;-79
2021/04/25 08:18:31;;;;;;;20.38;12.23;;;;;;;;;;6073041;29;20088;-78
2021/04/25 08:21:33;;;;;;;17.15;11.90;;;;;;;;;;6074612;29;20088;-78
2021/04/25 08:24:36;;;;;;;19.20;12.07;;;;;;;;;;6072040;29;20424;-78
2021/04/25 08:27:37;;;;;;;16.37;11.40;;;;;;;;;;6080960;29;20148;-77
2021/04/25 08:30:38;;;;;;;19.63;10.73;;;;;;;;;;6072217;29;20152;-74
2021/04/25 08:33:39;;;;;;;16.02;10.63;;;;;;;;;;6070845;29;20054;-77
2021/04/25 08:36:40;;;;;;;16.60;11.00;;;;;;;;;;6056354;29;20088;-78
2021/04/25 08:39:42;;;;;;;16.80;11.52;;;;;;;;;;6069790;29;20053;-78
2021/04/25 08:42:43;;;;;;;19.65;11.88;;;;;;;;;;6060931;29;20072;-77
2021/04/25 08:45:46;;;;;;;17.13;11.30;;;;;;;;;;6068040;29;20112;-78
2021/04/25 08:48:48;;;;;;;15.47;11.37;;;;;;;;;;6066626;29;20062;-77
2021/04/25 08:51:50;;;;;;;19.52;13.55;;;;;;;;;;6060842;29;20464;-77
2021/04/25 08:54:52;;;;;;;17.33;13.65;;;;;;;;;;6065046;29;20464;-77
2021/04/25 08:57:54;;;;;;;23.15;14.65;;;;;;;;;;6063062;29;20045;-76
2021/04/25 09:00:55;;;;;;;19.65;15.18;;;;;;;;;;6061462;29;20076;-77
2021/04/25 09:03:56;;;;;;;19.75;14.68;;;;;;;;;;6066693;29;20143;-76
2021/04/25 09:06:59;;;;;;;21.30;13.57;;;;;;;;;;6072449;29;20083;-77
2021/04/25 09:10:03;;;;;;;21.60;14.02;;;;;;;;;;6062432;29;20067;-77
2021/04/25 09:13:15;;;;;;;22.48;13.90;;;;;;;;;;6071168;29;20752;-77
2021/04/25 09:16:17;;;;;;;17.98;13.48;;;;;;;;;;6067520;29;20088;-77
2021/04/25 09:19:18;;;;;;;20.05;13.60;;;;;;;;;;6066094;29;20072;-77
2021/04/25 09:22:20;;;;;;;18.17;13.98;;;;;;;;;;6062147;29;20140;-78
2021/04/25 09:25:22;;;;;;;18.00;14.10;;;;;;;;;;6066262;29;20080;-78
2021/04/25 09:28:23;;;;;;;18.17;14.32;;;;;;;;;;6065262;29;20068;-77
2021/04/25 09:31:24;;;;;;;19.38;14.40;;;;;;;;;;6066341;29;20052;-77
2021/04/25 09:34:27;;;;;;;20.42;14.10;;;;;;;;;;6072268;29;20722;-78
2021/04/25 09:37:28;;;;;;;18.93;13.80;;;;;;;;;;6060796;29;20057;-77
2021/04/25 09:40:39;;;;;;;18.08;14.25;;;;;;;;;;6063136;29;20593;-76
2021/04/25 09:43:40;;;;;;;19.55;13.82;;;;;;;;;;6062834;29;20435;-76
2021/04/25 09:46:51;;;;;;;19.38;14.60;;;;;;;;;;6062579;29;20056;-76
2021/04/25 09:49:53;;;;;;;21.75;14.73;;;;;;;;;;6062449;29;20048;-76
2021/04/25 09:52:54;;;;;;;20.08;14.95;;;;;;;;;;6060088;29;20044;-77
2021/04/25 09:55:56;;;;;;;21.58;14.45;;;;;;;;;;6057580;29;20076;-77
2021/04/25 09:59:01;;;;;;;22.10;13.85;;;;;;;;;;6060123;29;20488;-77
2021/04/25 10:02:07;;;;;;;20.40;13.60;;;;;;;;;;6059887;29;20083;-76
2021/04/25 10:05:08;;;;;;;18.75;14.63;;;;;;;;;;6064337;29;20048;-77
2021/04/25 10:08:27;;;;;;;19.75;14.55;;;;;;;;;;6060684;29;20492;-77
2021/04/25 10:11:30;;;;;;;20.60;14.70;;;;;;;;;;6060956;29;20139;-77
2021/04/25 10:14:34;;;;;;;20.38;15.40;;;;;;;;;;6063047;29;20063;-77
2021/04/25 10:17:35;;;;;;;19.58;14.68;;;;;;;;;;6063283;29;20497;-76
2021/04/25 10:20:36;;;;;;;19.92;15.10;;;;;;;;;;6059411;29;20148;-76
2021/04/25 10:23:37;;;;;;;20.98;14.82;;;;;;;;;;6062302;29;20105;-76
2021/04/25 10:26:47;;;;;;;22.00;15.95;;;;;;;;;;6054986;29;20094;-75
2021/04/25 10:29:53;;;;;;;22.23;16.38;;;;;;;;;;6062569;29;20076;-77
2021/04/25 10:32:57;;;;;;;23.20;17.08;;;;;;;;;;6062523;29;20515;-76
2021/04/25 10:35:58;;;;;;;22.55;17.10;;;;;;;;;;6060495;29;20053;-77
2021/04/25 10:38:59;;;;;;;22.92;16.85;;;;;;;;;;6059141;29;20063;-77
2021/04/25 10:42:33;;;;;;;22.33;16.02;;;;;;;;;;6059919;29;20127;-77
2021/04/25 10:45:36;;;;;;;23.10;16.75;;;;;;;;;;6054998;29;20139;-76
2021/04/25 10:48:37;;;;;;;65.95;50.03;;;;;;;;;;6062986;29;20139;-76
2021/04/25 10:51:43;;;;;;;26.65;20.20;;;;;;;;;;6069879;29;20506;-77
2021/04/25 10:55:19;;;;;;;27.85;21.27;;;;;;;;;;6066730;29;20060;-77
2021/04/25 10:58:22;;;;;;;22.30;17.23;;;;;;;;;;6069829;29;20052;-81
2021/04/25 11:01:47;;;;;;;24.30;18.30;;;;;;;;;;6056733;29;20072;-77
2021/04/25 11:05:06;;;;;;;25.45;17.95;;;;;;;;;;6053098;29;20100;-77
2021/04/25 11:08:35;;;;;;;25.63;17.48;;;;;;;;;;6054584;29;20460;-77
2021/04/25 11:11:37;;;;;;;23.60;17.70;;;;;;;;;;6056546;29;20512;-77
2021/04/25 11:14:39;;;;;;;23.73;18.65;;;;;;;;;;6053766;29;20197;-77
2021/04/25 11:17:40;;;;;;;24.07;18.43;;;;;;;;;;6059243;29;20056;-77
2021/04/25 11:20:42;;;;;;;23.25;17.42;;;;;;;;;;6066814;29;20065;-77
2021/04/25 11:23:43;;;;;;;23.92;18.27;;;;;;;;;;6065254;29;20056;-77
2021/04/25 11:26:45;;;;;;;26.63;19.67;;;;;;;;;;6063978;29;20056;-76
2021/04/25 11:29:53;;;;;;;28.63;21.17;;;;;;;;;;6066273;29;20508;-75
2021/04/25 11:32:54;;;;;;;29.70;19.70;;;;;;;;;;6060287;29;20049;-75
2021/04/25 11:36:29;;;;;;;31.58;19.70;;;;;;;;;;6065602;29;20092;-78
2021/04/25 11:39:31;;;;;;;29.10;18.63;;;;;;;;;;6061956;29;20075;-76
2021/04/25 11:42:36;;;;;;;29.33;18.58;;;;;;;;;;6057578;29;20411;-73
2021/04/25 11:45:38;;;;;;;26.58;17.48;;;;;;;;;;6059368;29;20055;-73
2021/04/25 11:48:54;;;;;;;26.23;18.95;;;;;;;;;;6062474;29;20084;-76
2021/04/25 11:52:06;;;;;;;27.95;18.33;;;;;;;;;;6061120;29;20120;-75
2021/04/25 11:55:09;;;;;;;31.65;19.88;;;;;;;;;;6066833;29;20151;-75
2021/04/25 11:58:10;;;;;;;25.50;17.92;;;;;;;;;;6065689;29;20808;-78
2021/04/25 12:01:21;;;;;;;26.95;17.90;;;;;;;;;;6064189;29;20081;-77
2021/04/25 12:04:45;;;;;;;26.27;17.20;;;;;;;;;;6062706;29;20136;-79
2021/04/25 12:07:48;;;;;;;23.48;16.58;;;;;;;;;;6066722;29;20053;-77
2021/04/25 12:10:51;;;;;;;24.33;16.08;;;;;;;;;;6062055;29;20140;-78
2021/04/25 12:13:52;;;;;;;26.83;17.50;;;;;;;;;;6068074;29;20057;-78
2021/04/25 12:17:12;;;;;;;22.52;14.82;;;;;;;;;;6068093;29;20211;-77
2021/04/25 12:20:13;;;;;;;22.65;16.15;;;;;;;;;;6067903;29;20048;-77
2021/04/25 12:23:16;;;;;;;23.80;17.05;;;;;;;;;;6070944;29;20140;-79
2021/04/25 12:26:18;;;;;;;23.48;18.33;;;;;;;;;;6076342;29;20052;-78
2021/04/25 12:29:33;;;;;;;25.00;18.05;;;;;;;;;;6072906;29;20127;-77
2021/04/25 12:32:35;;;;;;;24.10;16.95;;;;;;;;;;6065412;29;20049;-79
2021/04/25 12:35:39;;;;;;;22.35;15.60;;;;;;;;;;6064063;29;20439;-80
2021/04/25 12:38:40;;;;;;;25.95;16.65;;;;;;;;;;6070129;29;20059;-79
2021/04/25 12:41:43;;;;;;;25.23;17.80;;;;;;;;;;6068181;29;20160;-78
2021/04/25 12:44:44;;;;;;;28.23;17.67;;;;;;;;;;6072630;29;20076;-73
2021/04/25 12:47:46;;;;;;;24.65;16.80;;;;;;;;;;6067773;29;20144;-74
2021/04/25 12:50:59;;;;;;;;;;;;;;;;;;6071263;29;20083;-75
2021/04/25 12:54:09;;;;;;;25.88;18.52;;;;;;;;;;6071130;29;19924;-78
2021/04/25 12:57:10;;;;;;;25.30;16.63;;;;;;;;;;6066956;29;20045;-77
2021/04/25 13:00:25;;;;;;;24.63;16.17;;;;;;;;;;6070742;29;20131;-77
2021/04/25 13:03:30;;;;;;;24.27;15.18;;;;;;;;;;6069419;29;20181;-77
2021/04/25 13:06:32;;;;;;;22.92;14.70;;;;;;;;;;6066921;29;20322;-78
2021/04/25 13:09:33;;;;;;;24.60;15.38;;;;;;;;;;6064580;29;20083;-77
2021/04/25 13:12:36;;;;;;;22.95;15.75;;;;;;;;;;6062028;29;20056;-77
2021/04/25 13:15:37;;;;;;;;;;;;;;;;;;6056941;29;20057;-78
2021/04/25 13:18:39;;;;;;;21.33;15.45;;;;;;;;;;6055912;29;20562;-77
2021/04/25 13:21:42;;;;;;;21.73;14.05;;;;;;;;;;6060676;29;20075;-77
2021/04/25 13:24:43;;;;;;;21.63;14.60;;;;;;;;;;6061760;29;20149;-76
2021/04/25 13:27:44;;;;;;;20.40;13.38;;;;;;;;;;6060803;29;20072;-76
2021/04/25 13:30:47;;;;;;;23.48;14.70;;;;;;;;;;6061344;29;20136;-76
2021/04/25 13:33:49;;;;;;;20.88;14.82;;;;;;;;;;6059808;29;20457;-77
2021/04/25 13:36:50;;;;;;;18.90;12.93;;;;;;;;;;6061456;29;20083;-76
2021/04/25 13:39:51;;;;;;;16.42;11.50;;;;;;;;;;6063619;29;20048;-78
2021/04/25 13:42:52;;;;;;;16.90;10.70;;;;;;;;;;6057909;29;20596;-74
2021/04/25 13:45:54;;;;;;;18.73;12.13;;;;;;;;;;6065274;29;20048;-79
2021/04/25 13:48:56;;;;;;;16.30;10.63;;;;;;;;;;6061742;29;20055;-75
2021/04/25 13:51:57;;;;;;;15.82;9.82;;;;;;;;;;6060381;29;20087;-76
2021/04/25 13:54:59;;;;;;;15.77;11.27;;;;;;;;;;6062700;29;20184;-75
2021/04/25 13:58:01;;;;;;;14.52;9.88;;;;;;;;;;6058537;29;20113;-75
2021/04/25 14:01:02;;;;;;;;;;;;;;;;;;6060855;29;20061;-75
2021/04/25 14:04:05;;;;;;;17.52;11.68;;;;;;;;;;6062873;29;20279;-74
2021/04/25 14:07:11;;;;;;;18.10;11.57;;;;;;;;;;6063623;29;20048;-74
2021/04/25 14:10:15;;;;;;;15.10;10.27;;;;;;;;;;6059354;29;20084;-75
2021/04/25 14:13:17;;;;;;;24.80;11.50;;;;;;;;;;6055556;29;20180;-74
2021/04/25 14:16:20;;;;;;;16.70;9.95;;;;;;;;;;6051404;29;20089;-74
2021/04/25 14:19:22;;;;;;;17.35;10.20;;;;;;;;;;6064526;29;20071;-75
2021/04/25 14:22:23;;;;;;;16.83;11.35;;;;;;;;;;6062869;29;20525;-74
2021/04/25 14:25:25;;;;;;;15.85;10.35;;;;;;;;;;6063829;29;20135;-74
2021/04/25 14:28:26;;;;;;;16.95;8.75;;;;;;;;;;6060171;29;20146;-74
2021/04/25 14:31:27;;;;;;;14.98;9.57;;;;;;;;;;6064931;29;20111;-75
2021/04/25 14:34:29;;;;;;;17.23;9.18;;;;;;;;;;6057223;29;20184;-73
2021/04/25 14:37:31;;;;;;;15.02;9.43;;;;;;;;;;6066975;29;20164;-74
2021/04/25 14:40:32;;;;;;;13.60;8.77;;;;;;;;;;6065208;29;20135;-74
2021/04/25 14:43:33;;;;;;;14.20;9.38;;;;;;;;;;6060079;29;20148;-74
2021/04/25 14:46:34;;;;;;;14.27;8.93;;;;;;;;;;6062472;29;20139;-74
2021/04/25 14:49:36;;;;;;;13.48;8.35;;;;;;;;;;6064303;29;20056;-75
2021/04/25 14:52:37;;;;;;;15.45;9.18;;;;;;;;;;6061111;29;20096;-76
2021/04/25 14:55:38;;;;;;;15.43;8.75;;;;;;;;;;6062962;29;20080;-78
2021/04/25 14:58:40;;;;;;;16.15;8.30;;;;;;;;;;6060841;29;20620;-75
2021/04/25 15:01:41;;;;;;;16.42;8.85;;;;;;;;;;6059885;29;20128;-77
2021/04/25 15:04:43;;;;;;;18.15;8.60;;;;;;;;;;6066098;29;20068;-84
2021/04/25 15:07:46;;;;;;;;;;;;;;;;;;6072414;29;20060;-76
2021/04/25 15:10:47;;;;;;;15.25;7.50;;;;;;;;;;6070079;29;20017;-82
2021/04/25 15:13:48;;;;;;;13.40;7.90;;;;;;;;;;6071068;29;20076;-82
2021/04/25 15:16:50;;;;;;;13.95;8.40;;;;;;;;;;6061284;29;20076;-74
2021/04/25 15:19:52;;;;;;;12.93;7.80;;;;;;;;;;6061690;29;20055;-75
2021/04/25 15:22:53;;;;;;;;;;;;;;;;;;6064369;29;20076;-74
2021/04/25 15:25:54;;;;;;;1194.75;100.75;;;;;;;;;;6065715;29;19959;-74
2021/04/25 15:28:55;;;;;;;17.83;8.23;;;;;;;;;;6065205;29;20076;-70
2021/04/25 15:31:57;;;;;;;16.67;8.38;;;;;;;;;;6058547;29;20052;-69
2021/04/25 15:34:59;;;;;;;15.80;8.40;;;;;;;;;;6059855;29;20044;-71
2021/04/25 15:38:00;;;;;;;18.70;8.18;;;;;;;;;;6062057;29;20205;-70
2021/04/25 15:41:01;;;;;;;13.13;8.25;;;;;;;;;;6062157;29;20088;-70
2021/04/25 15:44:03;;;;;;;15.88;8.48;;;;;;;;;;6060589;29;20068;-73
2021/04/25 15:47:04;;;;;;;16.10;7.73;;;;;;;;;;6061795;29;20095;-74
2021/04/25 15:50:07;;;;;;;13.90;8.05;;;;;;;;;;6062480;29;20053;-73
2021/04/25 15:53:08;;;;;;;13.35;8.50;;;;;;;;;;6067912;29;20060;-75
2021/04/25 15:56:09;;;;;;;19.17;8.30;;;;;;;;;;6061180;29;20099;-76
2021/04/25 15:59:11;;;;;;;17.17;7.72;;;;;;;;;;6057735;29;20140;-75
2021/04/25 16:02:12;;;;;;;17.38;7.80;;;;;;;;;;6052392;29;20444;-76
2021/04/25 16:05:17;;;;;;;14.05;6.95;;;;;;;;;;6052268;29;20059;-74
2021/04/25 16:08:18;;;;;;;9.52;6.32;;;;;;;;;;6057362;29;20140;-74
2021/04/25 16:11:19;;;;;;;13.73;7.53;;;;;;;;;;6053156;29;20071;-75
2021/04/25 16:14:20;;;;;;;14.07;7.05;;;;;;;;;;6064371;29;20057;-75
2021/04/25 16:17:21;;;;;;;13.23;6.82;;;;;;;;;;6059824;29;20067;-76
2021/04/25 16:20:23;;;;;;;11.75;7.25;;;;;;;;;;6051670;29;20162;-76
2021/04/25 16:23:24;;;;;;;12.23;6.85;;;;;;;;;;6051250;29;20077;-71
2021/04/25 16:26:26;;;;;;;11.88;5.90;;;;;;;;;;6057526;29;20139;-71
2021/04/25 16:29:27;;;;;;;8.93;5.97;;;;;;;;;;6063332;29;20467;-71
2021/04/25 16:32:28;;;;;;;10.88;5.22;;;;;;;;;;6064808;29;20190;-71
2021/04/25 16:35:30;;;;;;;9.73;6.10;;;;;;;;;;6066098;29;20136;-71
2021/04/25 16:38:31;;;;;;;8.65;6.07;;;;;;;;;;6063290;29;20119;-71
2021/04/25 16:41:32;;;;;;;9.52;5.65;;;;;;;;;;6068361;29;20116;-72
2021/04/25 16:44:33;;;;;;;6.97;5.38;;;;;;;;;;6063277;29;20068;-71
2021/04/25 16:47:35;;;;;;;8.18;5.40;;;;;;;;;;6065985;29;20143;-71
2021/04/25 16:50:37;;;;;;;8.45;4.65;;;;;;;;;;6061334;29;20144;-72
2021/04/25 16:53:38;;;;;;;13.57;4.95;;;;;;;;;;6063332;29;20591;-71
2021/04/25 16:56:41;;;;;;;7.13;5.03;;;;;;;;;;6061100;29;20075;-71
2021/04/25 16:59:42;;;;;;;9.83;6.07;;;;;;;;;;6063110;29;20080;-71
2021/04/25 17:02:43;;;;;;;11.18;5.40;;;;;;;;;;6059437;29;20143;-72
2021/04/25 17:05:45;;;;;;;7.57;4.97;;;;;;;;;;6060505;29;20242;-71
2021/04/25 17:08:46;;;;;;;6.25;4.90;;;;;;;;;;6064762;29;20072;-70
2021/04/25 17:11:47;;;;;;;9.38;5.25;;;;;;;;;;6058851;29;20087;-71
2021/04/25 17:14:48;;;;;;;7.13;5.00;;;;;;;;;;6063966;29;20060;-69
2021/04/25 17:17:50;;;;;;;7.75;4.43;;;;;;;;;;6066768;29;20180;-70
2021/04/25 17:20:52;;;;;;;7.18;4.57;;;;;;;;;;6067555;29;20059;-70
2021/04/25 17:23:53;;;;;;;4.82;4.32;;;;;;;;;;6062522;29;20060;-70
2021/04/25 17:26:54;;;;;;;7.90;5.28;;;;;;;;;;6062324;29;20101;-69
2021/04/25 17:29:55;;;;;;;8.63;4.38;;;;;;;;;;6064899;29;20151;-69
2021/04/25 17:32:57;;;;;;;6.07;4.22;;;;;;;;;;6067719;29;20135;-70
2021/04/25 17:35:58;;;;;;;7.72;4.28;;;;;;;;;;6054704;29;20058;-70
2021/04/25 17:39:00;;;;;;;6.45;4.57;;;;;;;;;;6063732;29;20147;-70
2021/04/25 17:42:01;;;;;;;8.45;4.60;;;;;;;;;;6062925;29;20133;-69
2021/04/25 17:45:03;;;;;;;7.07;4.50;;;;;;;;;;6060031;29;20060;-70
2021/04/25 17:48:05;;;;;;;6.53;4.28;;;;;;;;;;6060788;29;20099;-70
2021/04/25 17:51:07;;;;;;;8.60;5.00;;;;;;;;;;6061179;29;20268;-67